createdAt,value
2018-12-11T00:01:43.540Z,11.40
2018-12-11T00:04:14.354Z,11.40
2018-12-11T00:06:43.234Z,11.30
2018-12-11T00:09:12.108Z,11.30
2018-12-11T00:11:40.964Z,11.30
2018-12-11T00:14:09.835Z,11.30
2018-12-11T00:16:38.689Z,11.30
2018-12-11T00:19:07.559Z,11.30
2018-12-11T00:21:36.432Z,11.30
2018-12-11T00:24:05.304Z,11.30
2018-12-11T00:26:34.168Z,11.30
2018-12-11T00:29:04.988Z,11.30
2018-12-11T00:31:33.900Z,11.30
2018-12-11T00:34:02.817Z,11.30
2018-12-11T00:36:31.689Z,11.30
2018-12-11T00:39:00.581Z,11.30
2018-12-11T00:41:29.435Z,11.20
2018-12-11T00:43:59.288Z,11.30
2018-12-11T00:46:28.170Z,11.20
2018-12-11T00:48:57.032Z,11.20
2018-12-11T00:51:25.900Z,11.20
2018-12-11T00:53:54.780Z,11.20
2018-12-11T00:56:23.636Z,11.20
2018-12-11T00:58:52.508Z,11.20
2018-12-11T01:01:21.571Z,11.20
2018-12-11T01:03:50.471Z,11.20
2018-12-11T01:06:21.331Z,11.20
2018-12-11T01:08:50.192Z,11.20
2018-12-11T01:11:19.045Z,11.20
2018-12-11T01:13:47.909Z,11.20
2018-12-11T01:16:16.770Z,11.20
2018-12-11T01:18:45.652Z,11.20
2018-12-11T01:21:14.508Z,11.20
2018-12-11T01:23:43.365Z,11.20
2018-12-11T01:26:12.220Z,11.20
2018-12-11T01:28:41.085Z,11.20
2018-12-11T01:31:09.965Z,11.20
2018-12-11T01:33:38.827Z,11.20
2018-12-11T01:36:07.690Z,11.10
2018-12-11T01:38:36.543Z,11.10
2018-12-11T01:41:05.409Z,11.20
2018-12-11T01:43:34.277Z,11.20
2018-12-11T01:46:03.129Z,11.30
2018-12-11T01:48:32.056Z,11.50
2018-12-11T01:51:00.928Z,11.60
2018-12-11T01:53:29.813Z,11.70
2018-12-11T01:55:58.668Z,11.70
2018-12-11T01:58:27.537Z,11.70
2018-12-11T02:00:56.494Z,11.70
2018-12-11T02:03:25.343Z,11.60
2018-12-11T02:05:54.197Z,11.50
2018-12-11T02:08:23.102Z,11.50
2018-12-11T02:10:51.951Z,11.50
2018-12-11T02:13:20.817Z,11.40
2018-12-11T02:15:49.677Z,11.40
2018-12-11T02:18:18.592Z,11.40
2018-12-11T02:20:47.453Z,11.30
2018-12-11T02:23:16.328Z,11.30
2018-12-11T02:25:45.865Z,11.30
2018-12-11T02:28:14.724Z,11.30
2018-12-11T02:30:43.590Z,11.30
2018-12-11T02:33:12.447Z,11.30
2018-12-11T02:35:41.300Z,11.30
2018-12-11T02:38:10.172Z,11.30
2018-12-11T02:40:39.053Z,11.30
2018-12-11T02:43:08.004Z,11.30
2018-12-11T02:45:36.871Z,11.20
2018-12-11T02:48:05.743Z,11.30
2018-12-11T02:50:34.637Z,11.30
2018-12-11T02:53:03.546Z,11.20
2018-12-11T02:55:32.511Z,11.20
2018-12-11T02:58:01.384Z,11.20
2018-12-11T03:13:29.745Z,11.20
2018-12-11T03:15:58.606Z,11.20
2018-12-11T03:18:27.464Z,11.00
2018-12-11T03:20:56.325Z,11.00
2018-12-11T03:23:25.184Z,11.00
2018-12-11T03:25:54.050Z,11.00
2018-12-11T03:28:22.918Z,11.00
2018-12-11T03:30:51.789Z,11.00
2018-12-11T03:33:20.741Z,11.10
2018-12-11T03:35:49.599Z,11.10
2018-12-11T03:38:18.468Z,11.10
2018-12-11T03:40:47.350Z,11.10
2018-12-11T03:43:16.384Z,11.10
2018-12-11T03:45:45.348Z,11.10
2018-12-11T03:48:14.204Z,11.30
2018-12-11T03:50:43.065Z,11.40
2018-12-11T03:53:11.940Z,11.50
2018-12-11T03:55:40.824Z,11.60
2018-12-11T03:58:09.686Z,11.60
2018-12-11T04:00:38.578Z,11.60
2018-12-11T04:03:07.453Z,11.50
2018-12-11T04:05:36.301Z,11.50
2018-12-11T04:08:05.193Z,11.50
2018-12-11T04:10:34.069Z,11.40
2018-12-11T04:13:03.921Z,11.40
2018-12-11T04:15:33.215Z,11.40
2018-12-11T04:18:02.072Z,11.30
2018-12-11T04:20:30.972Z,11.30
2018-12-11T04:22:59.947Z,11.30
2018-12-11T04:25:28.788Z,11.30
2018-12-11T04:27:57.652Z,11.30
2018-12-11T04:30:28.469Z,11.30
2018-12-11T04:32:57.340Z,11.30
2018-12-11T04:35:26.236Z,11.30
2018-12-11T04:37:55.093Z,11.20
2018-12-11T04:40:23.952Z,11.30
2018-12-11T04:42:52.821Z,11.20
2018-12-11T04:45:21.683Z,11.20
2018-12-11T04:47:50.528Z,11.20
2018-12-11T04:50:19.395Z,11.20
2018-12-11T04:52:48.260Z,11.20
2018-12-11T04:55:17.142Z,11.20
2018-12-11T04:57:46.020Z,11.20
2018-12-11T05:13:14.358Z,11.20
2018-12-11T05:15:43.207Z,11.20
2018-12-11T05:18:12.055Z,11.00
2018-12-11T05:20:40.925Z,10.90
2018-12-11T05:23:09.790Z,11.00
2018-12-11T05:25:38.649Z,11.00
2018-12-11T05:28:07.513Z,11.00
2018-12-11T05:30:36.392Z,11.00
2018-12-11T05:33:05.472Z,11.00
2018-12-11T05:35:34.298Z,11.00
2018-12-11T05:38:03.228Z,11.00
2018-12-11T05:40:32.081Z,11.00
2018-12-11T05:43:00.960Z,11.00
2018-12-11T05:45:29.827Z,11.10
2018-12-11T05:47:58.812Z,11.20
2018-12-11T05:50:27.669Z,11.30
2018-12-11T05:52:56.529Z,11.50
2018-12-11T05:55:25.405Z,11.60
2018-12-11T05:57:54.276Z,11.60
2018-12-11T06:00:23.164Z,11.60
2018-12-11T06:02:52.040Z,11.50
2018-12-11T06:18:20.404Z,11.50
2018-12-11T06:20:49.282Z,11.40
2018-12-11T06:23:18.155Z,11.10
2018-12-11T06:25:47.056Z,11.10
2018-12-11T06:28:15.953Z,11.10
2018-12-11T06:30:44.823Z,11.10
2018-12-11T06:33:13.708Z,11.10
2018-12-11T06:35:42.582Z,11.10
2018-12-11T06:38:11.487Z,11.10
2018-12-11T06:40:40.346Z,11.10
2018-12-11T06:43:09.200Z,11.10
2018-12-11T06:45:38.056Z,11.10
2018-12-11T06:48:06.925Z,11.10
2018-12-11T06:50:35.793Z,11.20
2018-12-11T06:53:04.664Z,11.10
2018-12-11T06:55:33.535Z,11.10
2018-12-11T06:58:02.400Z,11.20
2018-12-11T07:00:31.271Z,11.10
2018-12-11T07:03:00.141Z,11.10
2018-12-11T07:05:29.067Z,11.10
2018-12-11T07:07:57.941Z,11.10
2018-12-11T07:10:26.824Z,11.10
2018-12-11T07:12:55.691Z,11.10
2018-12-11T07:15:24.540Z,11.10
2018-12-11T07:17:53.383Z,11.10
2018-12-11T07:20:22.284Z,11.10
2018-12-11T07:22:51.166Z,11.10
2018-12-11T07:25:20.042Z,11.10
2018-12-11T07:27:48.925Z,11.10
2018-12-11T07:30:17.789Z,11.10
2018-12-11T07:32:46.647Z,11.10
2018-12-11T07:35:15.518Z,11.10
2018-12-11T07:37:44.385Z,11.10
2018-12-11T07:40:13.268Z,11.10
2018-12-11T07:42:42.131Z,11.10
2018-12-11T07:45:11.007Z,11.00
2018-12-11T07:47:39.889Z,11.10
2018-12-11T07:50:08.781Z,11.00
2018-12-11T07:52:37.667Z,11.00
2018-12-11T07:55:06.641Z,11.00
2018-12-11T07:57:35.531Z,11.00
2018-12-11T08:00:05.608Z,11.00
2018-12-11T08:02:34.473Z,11.00
2018-12-11T08:05:03.356Z,11.00
2018-12-11T08:07:32.291Z,11.00
2018-12-11T08:10:01.175Z,11.00
2018-12-11T08:12:30.065Z,11.00
2018-12-11T08:14:58.911Z,11.00
2018-12-11T08:17:27.782Z,11.00
2018-12-11T08:19:56.652Z,11.00
2018-12-11T08:22:25.534Z,11.00
2018-12-11T08:24:54.388Z,11.00
2018-12-11T08:27:23.252Z,11.00
2018-12-11T08:29:52.130Z,11.00
2018-12-11T08:32:20.997Z,11.00
2018-12-11T08:34:50.067Z,11.00
2018-12-11T08:37:19.163Z,11.00
2018-12-11T08:39:48.026Z,11.00
2018-12-11T08:42:17.139Z,11.00
2018-12-11T08:44:51.170Z,11.00
2018-12-11T08:47:16.845Z,11.00
2018-12-11T08:49:45.727Z,11.00
2018-12-11T08:52:14.713Z,11.00
2018-12-11T08:54:43.617Z,11.00
2018-12-11T08:57:12.510Z,11.00
2018-12-11T08:59:41.444Z,11.00
2018-12-11T09:02:10.325Z,11.00
2018-12-11T09:04:39.184Z,11.00
2018-12-11T09:07:08.076Z,11.00
2018-12-11T09:09:36.948Z,11.00
2018-12-11T09:12:05.846Z,11.00
2018-12-11T09:14:34.708Z,11.00
2018-12-11T09:17:10.062Z,11.00
2018-12-11T09:19:34.465Z,11.00
2018-12-11T09:22:03.341Z,11.00
2018-12-11T09:24:32.222Z,11.00
2018-12-11T09:27:01.097Z,11.00
2018-12-11T09:29:29.977Z,11.00
2018-12-11T09:31:58.855Z,11.00
2018-12-11T09:34:27.752Z,11.00
2018-12-11T09:36:56.623Z,11.00
2018-12-11T09:39:25.572Z,11.00
2018-12-11T09:41:54.550Z,11.00
2018-12-11T09:44:23.419Z,11.00
2018-12-11T09:46:52.365Z,11.00
2018-12-11T09:49:21.199Z,11.00
2018-12-11T09:51:50.080Z,11.00
2018-12-11T09:54:18.933Z,11.00
2018-12-11T09:56:47.873Z,11.00
2018-12-11T09:59:16.749Z,11.00
2018-12-11T10:01:45.624Z,11.00
2018-12-11T10:04:14.489Z,11.00
2018-12-11T10:06:43.384Z,11.00
2018-12-11T10:09:12.272Z,11.00
2018-12-11T10:11:41.127Z,11.00
2018-12-11T10:14:10.006Z,11.00
2018-12-11T10:16:38.879Z,11.00
2018-12-11T10:19:07.736Z,11.00
2018-12-11T10:21:36.667Z,11.00
2018-12-11T10:24:05.530Z,11.00
2018-12-11T10:26:35.523Z,11.00
2018-12-11T10:29:04.388Z,11.00
2018-12-11T10:31:33.244Z,11.00
2018-12-11T10:34:02.115Z,11.00
2018-12-11T10:36:30.998Z,11.00
2018-12-11T10:39:00.912Z,11.00
2018-12-11T10:41:31.741Z,11.00
2018-12-11T10:44:00.968Z,11.00
2018-12-11T10:46:33.779Z,11.10
2018-12-11T10:49:00.695Z,11.10
2018-12-11T10:51:29.583Z,11.10
2018-12-11T10:53:58.441Z,11.20
2018-12-11T10:56:27.313Z,11.20
2018-12-11T10:58:56.187Z,11.20
2018-12-11T11:01:27.785Z,11.30
2018-12-11T11:03:56.744Z,11.30
2018-12-11T11:06:25.613Z,11.30
2018-12-11T11:08:54.496Z,11.30
2018-12-11T11:11:23.364Z,11.30
2018-12-11T11:13:52.269Z,11.30
2018-12-11T11:16:21.197Z,11.40
2018-12-11T11:18:50.079Z,11.40
2018-12-11T11:21:18.944Z,11.50
2018-12-11T11:23:47.796Z,11.50
2018-12-11T11:26:16.680Z,11.60
2018-12-11T11:28:45.524Z,11.60
2018-12-11T11:31:14.399Z,11.60
2018-12-11T11:33:43.285Z,11.60
2018-12-11T11:36:12.139Z,12.70
2018-12-11T11:38:41.009Z,11.70
2018-12-11T11:41:09.905Z,11.70
2018-12-11T11:43:38.808Z,11.70
2018-12-11T11:46:07.733Z,11.70
2018-12-11T11:48:36.605Z,11.70
2018-12-11T11:51:05.479Z,11.80
2018-12-11T12:06:33.833Z,11.80
2018-12-11T12:09:02.927Z,11.80
2018-12-11T12:11:33.548Z,12.00
2018-12-11T12:14:02.474Z,12.00
2018-12-11T12:16:31.357Z,12.10
2018-12-11T12:19:00.224Z,12.10
2018-12-11T12:21:29.088Z,12.20
2018-12-11T12:23:57.948Z,12.30
2018-12-11T12:26:26.814Z,12.30
2018-12-11T12:28:56.293Z,12.40
2018-12-11T12:31:25.356Z,12.40
2018-12-11T12:33:54.229Z,12.50
2018-12-11T12:36:23.107Z,12.50
2018-12-11T12:38:51.978Z,12.50
2018-12-11T12:41:20.869Z,12.60
2018-12-11T12:43:49.746Z,12.60
2018-12-11T12:46:18.648Z,12.70
2018-12-11T12:48:47.540Z,12.70
2018-12-11T12:51:16.404Z,12.70
2018-12-11T12:53:45.279Z,12.80
2018-12-11T12:56:14.156Z,12.80
2018-12-11T12:58:43.011Z,12.80
2018-12-11T13:01:12.005Z,12.80
2018-12-11T13:03:41.696Z,12.90
2018-12-11T13:06:10.573Z,12.90
2018-12-11T13:08:39.428Z,12.90
2018-12-11T13:11:08.292Z,12.90
2018-12-11T13:13:37.346Z,12.90
2018-12-11T13:16:06.177Z,13.00
2018-12-11T13:18:35.109Z,13.00
2018-12-11T13:21:03.966Z,13.00
2018-12-11T13:23:32.841Z,13.00
2018-12-11T13:26:01.761Z,13.00
2018-12-11T13:28:30.608Z,13.10
2018-12-11T13:30:59.460Z,13.10
2018-12-11T13:33:28.317Z,13.10
2018-12-11T13:35:57.211Z,13.10
2018-12-11T13:38:26.083Z,13.10
2018-12-11T13:40:55.119Z,13.10
2018-12-11T13:43:23.983Z,13.10
2018-12-11T13:45:52.849Z,13.10
2018-12-11T13:48:23.451Z,13.10
2018-12-11T13:50:52.777Z,13.10
2018-12-11T13:53:21.654Z,13.10
2018-12-11T13:55:50.509Z,13.20
2018-12-11T13:58:19.398Z,13.20
2018-12-11T14:00:48.249Z,13.20
2018-12-11T14:03:17.113Z,13.20
2018-12-11T14:05:45.975Z,13.20
2018-12-11T14:08:14.839Z,13.20
2018-12-11T14:10:43.708Z,13.20
2018-12-11T14:13:12.576Z,13.20
2018-12-11T14:15:41.440Z,13.20
2018-12-11T14:18:10.318Z,13.20
2018-12-11T14:20:39.159Z,13.20
2018-12-11T14:23:08.009Z,13.20
2018-12-11T14:25:36.884Z,13.30
2018-12-11T14:28:05.754Z,13.20
2018-12-11T14:30:34.628Z,13.30
2018-12-11T14:33:03.480Z,13.30
2018-12-11T14:35:32.356Z,13.30
2018-12-11T14:38:01.220Z,13.20
2018-12-11T14:40:30.082Z,13.20
2018-12-11T14:42:58.983Z,13.20
2018-12-11T14:45:27.841Z,13.20
2018-12-11T14:47:56.698Z,13.20
2018-12-11T15:03:24.801Z,13.20
2018-12-11T15:05:53.653Z,13.20
2018-12-11T15:08:22.520Z,12.90
2018-12-11T15:10:51.556Z,12.90
2018-12-11T15:13:20.420Z,12.90
2018-12-11T15:15:49.300Z,12.90
2018-12-11T15:18:18.170Z,12.90
2018-12-11T15:20:47.048Z,12.90
2018-12-11T15:23:15.935Z,12.90
2018-12-11T15:25:44.819Z,12.90
2018-12-11T15:28:13.721Z,12.90
2018-12-11T15:30:42.584Z,12.90
2018-12-11T15:33:11.484Z,12.90
2018-12-11T15:35:40.340Z,12.90
2018-12-11T15:38:09.221Z,12.90
2018-12-11T15:40:38.120Z,12.90
2018-12-11T15:43:07.129Z,12.90
2018-12-11T15:45:36.000Z,12.80
2018-12-11T15:48:05.081Z,12.80
2018-12-11T15:50:33.927Z,12.80
2018-12-11T15:53:02.787Z,12.80
2018-12-11T15:55:31.859Z,12.80
2018-12-11T15:58:00.714Z,12.80
2018-12-11T16:00:29.569Z,12.80
2018-12-11T16:02:58.463Z,12.80
2018-12-11T16:05:27.316Z,12.80
2018-12-11T16:07:56.209Z,12.70
2018-12-11T16:10:25.072Z,12.70
2018-12-11T16:12:53.992Z,12.70
2018-12-11T16:15:24.803Z,12.70
2018-12-11T16:17:53.695Z,12.70
2018-12-11T16:20:22.562Z,12.70
2018-12-11T16:22:51.423Z,12.70
2018-12-11T16:25:20.495Z,12.70
2018-12-11T16:27:49.377Z,12.70
2018-12-11T16:30:18.323Z,12.70
2018-12-11T16:32:48.329Z,12.70
2018-12-11T16:35:17.197Z,12.70
2018-12-11T16:37:46.249Z,12.70
2018-12-11T16:40:15.104Z,12.70
2018-12-11T16:42:43.972Z,12.70
2018-12-11T16:45:13.008Z,12.60
2018-12-11T16:47:41.868Z,12.60
2018-12-11T16:50:10.728Z,12.60
2018-12-11T16:52:39.655Z,12.60
2018-12-11T16:55:08.513Z,12.60
2018-12-11T16:57:37.398Z,12.60
2018-12-11T17:00:08.056Z,12.60
2018-12-11T17:02:37.207Z,12.60
2018-12-11T17:05:06.064Z,12.60
2018-12-11T17:07:34.976Z,12.60
2018-12-11T17:10:04.376Z,12.60
2018-12-11T17:12:33.447Z,12.50
2018-12-11T17:15:03.315Z,12.50
2018-12-11T17:17:32.451Z,12.60
2018-12-11T17:20:01.414Z,12.50
2018-12-11T17:22:32.282Z,12.50
2018-12-11T17:25:01.149Z,12.50
2018-12-11T17:27:30.036Z,12.50
2018-12-11T17:29:58.910Z,12.50
2018-12-11T17:32:27.779Z,12.50
2018-12-11T17:34:56.633Z,12.50
2018-12-11T17:37:25.488Z,12.50
2018-12-11T17:39:54.406Z,12.50
2018-12-11T17:42:23.280Z,12.40
2018-12-11T17:44:52.140Z,12.40
2018-12-11T17:47:21.018Z,12.40
2018-12-11T17:49:49.915Z,12.40
2018-12-11T17:52:18.759Z,12.40
2018-12-11T17:54:47.635Z,12.40
2018-12-11T17:57:16.517Z,12.40
2018-12-11T17:59:45.389Z,12.40
2018-12-11T18:02:18.519Z,12.40
2018-12-11T18:04:47.380Z,12.40
2018-12-11T18:07:16.283Z,12.40
2018-12-11T18:09:45.196Z,12.40
2018-12-11T18:12:14.053Z,12.40
2018-12-11T18:14:42.939Z,12.30
2018-12-11T18:17:11.791Z,12.30
2018-12-11T18:19:40.645Z,12.30
2018-12-11T18:22:09.532Z,12.30
2018-12-11T18:24:38.408Z,12.30
2018-12-11T18:27:07.300Z,12.30
2018-12-11T18:29:36.178Z,12.30
2018-12-11T18:32:05.489Z,12.30
2018-12-11T18:34:38.636Z,12.30
2018-12-11T18:37:08.188Z,12.30
2018-12-11T18:39:37.066Z,12.30
2018-12-11T18:42:05.920Z,12.30
2018-12-11T18:44:34.919Z,12.30
2018-12-11T18:47:03.856Z,12.20
2018-12-11T18:49:33.620Z,12.20
2018-12-11T18:52:02.500Z,12.20
2018-12-11T18:54:31.379Z,12.20
2018-12-11T18:57:00.241Z,12.20
2018-12-11T18:59:29.114Z,12.20
2018-12-11T19:01:58.005Z,12.20
2018-12-11T19:04:27.845Z,12.20
2018-12-11T19:06:56.724Z,12.20
2018-12-11T19:09:25.640Z,12.20
2018-12-11T19:11:54.513Z,12.20
2018-12-11T19:14:23.631Z,12.20
2018-12-11T19:16:52.547Z,12.20
2018-12-11T19:19:21.431Z,12.10
2018-12-11T19:21:50.313Z,12.10
2018-12-11T19:24:31.128Z,12.10
2018-12-11T19:27:00.059Z,12.10
2018-12-11T19:29:28.966Z,12.10
2018-12-11T19:31:57.836Z,12.10
2018-12-11T19:34:26.713Z,12.10
2018-12-11T19:36:55.600Z,12.10
2018-12-11T19:39:24.467Z,12.10
2018-12-11T19:41:53.351Z,12.10
2018-12-11T19:44:22.277Z,12.10
2018-12-11T19:46:51.168Z,12.10
2018-12-11T19:49:20.045Z,11.00
2018-12-11T19:51:48.938Z,12.10
2018-12-11T19:54:17.880Z,12.10
2018-12-11T19:56:46.772Z,12.00
2018-12-11T19:59:15.709Z,12.00
2018-12-11T20:01:44.585Z,12.00
2018-12-11T20:04:13.765Z,12.00
2018-12-11T20:06:42.642Z,12.00
2018-12-11T20:09:11.617Z,12.00
2018-12-11T20:11:40.559Z,12.00
2018-12-11T20:14:09.510Z,12.00
2018-12-11T20:16:38.393Z,12.00
2018-12-11T20:19:07.270Z,12.00
2018-12-11T20:21:38.095Z,12.00
2018-12-11T20:24:08.928Z,12.00
2018-12-11T20:26:39.577Z,11.90
2018-12-11T20:29:09.751Z,11.90
2018-12-11T20:31:38.657Z,11.90
2018-12-11T20:34:07.547Z,11.90
2018-12-11T20:36:36.445Z,11.90
2018-12-11T20:39:06.499Z,11.90
2018-12-11T20:41:35.511Z,11.90
2018-12-11T20:44:04.403Z,11.90
2018-12-11T20:46:33.502Z,12.00
2018-12-11T20:49:02.492Z,12.20
2018-12-11T20:51:31.415Z,12.30
2018-12-11T20:54:00.307Z,12.40
2018-12-11T20:56:29.233Z,12.50
2018-12-11T20:58:58.112Z,12.50
2018-12-11T21:01:26.995Z,12.40
2018-12-11T21:03:55.875Z,12.40
2018-12-11T21:06:24.780Z,12.30
2018-12-11T21:08:53.692Z,12.30
2018-12-11T21:11:22.569Z,12.30
2018-12-11T21:13:51.448Z,12.20
2018-12-11T21:16:20.368Z,12.10
2018-12-11T21:18:49.547Z,12.20
2018-12-11T21:21:19.131Z,12.10
2018-12-11T21:23:48.045Z,12.10
2018-12-11T21:26:16.955Z,12.10
2018-12-11T21:28:45.846Z,12.10
2018-12-11T21:31:14.719Z,12.10
2018-12-11T21:33:43.605Z,12.10
2018-12-11T21:36:12.516Z,12.10
2018-12-11T21:38:41.405Z,12.10
2018-12-11T21:41:10.283Z,12.00
2018-12-11T21:43:39.174Z,12.00
2018-12-11T21:46:08.071Z,12.00
2018-12-11T21:48:36.958Z,12.00
2018-12-11T21:51:05.831Z,12.00
2018-12-11T21:53:34.961Z,12.00
2018-12-11T21:56:03.919Z,12.00
2018-12-11T21:58:32.799Z,12.00
2018-12-11T22:01:01.663Z,11.90
2018-12-11T22:03:30.734Z,11.90
2018-12-11T22:06:00.417Z,11.90
2018-12-11T22:08:29.257Z,11.90
2018-12-11T22:10:58.116Z,11.90
2018-12-11T22:13:26.988Z,11.90
2018-12-11T22:15:55.875Z,11.90
2018-12-11T22:18:24.754Z,11.90
2018-12-11T22:20:53.624Z,11.90
2018-12-11T22:23:22.484Z,11.90
2018-12-11T22:25:51.348Z,11.90
2018-12-11T22:28:20.219Z,11.80
2018-12-11T22:30:49.085Z,11.80
2018-12-11T22:33:18.535Z,11.80
2018-12-11T22:35:47.388Z,11.80
2018-12-11T22:38:16.246Z,11.80
2018-12-11T22:40:45.115Z,11.80
2018-12-11T22:43:14.004Z,11.80
2018-12-11T22:45:42.872Z,11.80
2018-12-11T22:48:11.740Z,11.80
2018-12-11T22:50:40.625Z,11.80
2018-12-11T22:53:09.503Z,11.80
2018-12-11T22:55:38.381Z,11.70
2018-12-11T22:58:07.239Z,11.70
2018-12-11T23:00:36.188Z,11.70
2018-12-11T23:03:07.072Z,11.70
2018-12-11T23:05:35.928Z,11.70
2018-12-11T23:08:04.810Z,11.70
2018-12-11T23:10:33.717Z,11.70
2018-12-11T23:13:02.599Z,11.70
2018-12-11T23:15:31.478Z,11.80
2018-12-11T23:18:00.324Z,11.90
2018-12-11T23:20:29.199Z,12.00
2018-12-11T23:22:58.093Z,12.10
2018-12-11T23:25:27.100Z,12.20
2018-12-11T23:27:56.859Z,12.20
2018-12-11T23:30:26.316Z,12.20
2018-12-11T23:32:55.255Z,12.10
2018-12-11T23:35:24.139Z,12.10
2018-12-11T23:37:53.008Z,12.00
2018-12-11T23:40:21.893Z,12.00
2018-12-11T23:42:50.752Z,12.00
2018-12-11T23:45:19.616Z,11.90
2018-12-11T23:47:48.528Z,11.90
2018-12-11T23:50:17.389Z,11.90
2018-12-11T23:52:46.255Z,11.90
2018-12-11T23:55:15.115Z,11.90
2018-12-11T23:57:44.008Z,11.80
